sensor_id;sensor_type;location;lat;lon;timestamp;temperature;humidity
49222;DHT22;35047;37.588;-122.048;2022-12-19T00:01:23;25.30;45.40
49222;DHT22;35047;37.588;-122.048;2022-12-19T00:03:58;25.40;45.40
49222;DHT22;35047;37.588;-122.048;2022-12-19T00:06:25;25.20;45.60
49222;DHT22;35047;37.588;-122.048;2022-12-19T00:08:53;25.30;45.60
49222;DHT22;35047;37.588;-122.048;2022-12-19T00:11:22;25.40;45.20
49222;DHT22;35047;37.588;-122.048;2022-12-19T00:13:50;25.80;45.30
49222;DHT22;35047;37.588;-122.048;2022-12-19T00:16:18;26.00;44.90
49222;DHT22;35047;37.588;-122.048;2022-12-19T00:18:47;26.20;44.70
49222;DHT22;35047;37.588;-122.048;2022-12-19T00:21:15;26.10;44.50
49222;DHT22;35047;37.588;-122.048;2022-12-19T00:23:43;26.00;44.60
49222;DHT22;35047;37.588;-122.048;2022-12-19T00:28:36;25.80;44.70
49222;DHT22;35047;37.588;-122.048;2022-12-19T00:31:03;25.80;45.00
49222;DHT22;35047;37.588;-122.048;2022-12-19T00:33:31;25.90;44.80
49222;DHT22;35047;37.588;-122.048;2022-12-19T00:36:02;26.10;44.70
49222;DHT22;35047;37.588;-122.048;2022-12-19T00:38:30;26.30;44.60
49222;DHT22;35047;37.588;-122.048;2022-12-19T00:41:07;26.30;44.30
49222;DHT22;35047;37.588;-122.048;2022-12-19T00:43:34;26.30;44.30
49222;DHT22;35047;37.588;-122.048;2022-12-19T00:46:07;26.30;44.20
49222;DHT22;35047;37.588;-122.048;2022-12-19T00:48:34;26.20;44.10
49222;DHT22;35047;37.588;-122.048;2022-12-19T00:51:03;26.20;44.20
49222;DHT22;35047;37.588;-122.048;2022-12-19T00:53:33;26.20;44.20
49222;DHT22;35047;37.588;-122.048;2022-12-19T00:56:06;26.20;44.30
49222;DHT22;35047;37.588;-122.048;2022-12-19T00:58:34;26.20;44.30
49222;DHT22;35047;37.588;-122.048;2022-12-19T01:01:06;26.10;44.20
49222;DHT22;35047;37.588;-122.048;2022-12-19T01:03:33;26.10;44.30
49222;DHT22;35047;37.588;-122.048;2022-12-19T01:05:59;26.00;44.30
49222;DHT22;35047;37.588;-122.048;2022-12-19T01:08:26;26.00;44.30
49222;DHT22;35047;37.588;-122.048;2022-12-19T01:10:53;25.90;44.40
49222;DHT22;35047;37.588;-122.048;2022-12-19T01:13:22;25.70;44.60
49222;DHT22;35047;37.588;-122.048;2022-12-19T01:15:48;25.90;44.60
49222;DHT22;35047;37.588;-122.048;2022-12-19T01:18:16;25.90;44.50
49222;DHT22;35047;37.588;-122.048;2022-12-19T01:20:44;26.00;44.50
49222;DHT22;35047;37.588;-122.048;2022-12-19T01:23:15;25.90;44.40
49222;DHT22;35047;37.588;-122.048;2022-12-19T01:25:47;25.90;45.30
49222;DHT22;35047;37.588;-122.048;2022-12-19T01:28:17;26.00;44.60
49222;DHT22;35047;37.588;-122.048;2022-12-19T01:30:45;25.70;44.70
49222;DHT22;35047;37.588;-122.048;2022-12-19T01:33:12;25.70;44.60
49222;DHT22;35047;37.588;-122.048;2022-12-19T01:35:41;25.70;44.60
49222;DHT22;35047;37.588;-122.048;2022-12-19T01:38:12;25.30;44.50
49222;DHT22;35047;37.588;-122.048;2022-12-19T01:40:40;24.70;45.50
49222;DHT22;35047;37.588;-122.048;2022-12-19T01:43:12;24.90;45.30
49222;DHT22;35047;37.588;-122.048;2022-12-19T01:45:40;24.70;45.80
49222;DHT22;35047;37.588;-122.048;2022-12-19T01:48:41;24.60;45.90
49222;DHT22;35047;37.588;-122.048;2022-12-19T01:51:17;24.80;45.70
49222;DHT22;35047;37.588;-122.048;2022-12-19T01:53:59;24.40;46.30
49222;DHT22;35047;37.588;-122.048;2022-12-19T01:56:38;24.50;46.30
49222;DHT22;35047;37.588;-122.048;2022-12-19T01:59:09;24.60;45.80
49222;DHT22;35047;37.588;-122.048;2022-12-19T02:01:40;24.80;45.70
49222;DHT22;35047;37.588;-122.048;2022-12-19T02:04:12;24.80;45.50
49222;DHT22;35047;37.588;-122.048;2022-12-19T02:06:41;24.80;45.20
49222;DHT22;35047;37.588;-122.048;2022-12-19T02:09:08;24.30;45.90
49222;DHT22;35047;37.588;-122.048;2022-12-19T02:11:35;24.10;46.50
49222;DHT22;35047;37.588;-122.048;2022-12-19T02:14:01;24.10;46.40
49222;DHT22;35047;37.588;-122.048;2022-12-19T02:31:15;24.20;45.60
49222;DHT22;35047;37.588;-122.048;2022-12-19T02:36:21;24.30;45.40
49222;DHT22;35047;37.588;-122.048;2022-12-19T02:38:57;24.30;45.40
49222;DHT22;35047;37.588;-122.048;2022-12-19T02:47:02;24.10;45.20
49222;DHT22;35047;37.588;-122.048;2022-12-19T02:49:31;23.90;45.30
49222;DHT22;35047;37.588;-122.048;2022-12-19T02:54:52;23.90;45.20
49222;DHT22;35047;37.588;-122.048;2022-12-19T03:05:47;23.30;45.50
49222;DHT22;35047;37.588;-122.048;2022-12-19T03:08:43;22.90;46.20
49222;DHT22;35047;37.588;-122.048;2022-12-19T03:11:13;22.40;47.20
49222;DHT22;35047;37.588;-122.048;2022-12-19T03:13:55;22.20;47.20
49222;DHT22;35047;37.588;-122.048;2022-12-19T03:16:23;22.20;47.80
49222;DHT22;35047;37.588;-122.048;2022-12-19T03:18:53;22.70;46.90
49222;DHT22;35047;37.588;-122.048;2022-12-19T03:21:31;22.80;46.40
49222;DHT22;35047;37.588;-122.048;2022-12-19T03:24:01;22.70;46.40
49222;DHT22;35047;37.588;-122.048;2022-12-19T03:26:33;22.60;46.30
49222;DHT22;35047;37.588;-122.048;2022-12-19T03:31:30;22.60;46.90
49222;DHT22;35047;37.588;-122.048;2022-12-19T03:34:02;22.50;46.60
49222;DHT22;35047;37.588;-122.048;2022-12-19T03:36:36;22.40;46.90
49222;DHT22;35047;37.588;-122.048;2022-12-19T03:39:06;21.80;47.40
49222;DHT22;35047;37.588;-122.048;2022-12-19T03:41:35;22.10;47.50
49222;DHT22;35047;37.588;-122.048;2022-12-19T03:44:23;22.30;47.20
49222;DHT22;35047;37.588;-122.048;2022-12-19T03:46:59;22.40;47.10
49222;DHT22;35047;37.588;-122.048;2022-12-19T03:49:29;22.60;46.80
49222;DHT22;35047;37.588;-122.048;2022-12-19T03:54:40;22.30;46.40
49222;DHT22;35047;37.588;-122.048;2022-12-19T03:57:20;22.50;46.50
49222;DHT22;35047;37.588;-122.048;2022-12-19T03:59:55;22.30;46.80
49222;DHT22;35047;37.588;-122.048;2022-12-19T04:02:25;22.50;46.60
49222;DHT22;35047;37.588;-122.048;2022-12-19T04:04:59;22.60;46.30
49222;DHT22;35047;37.588;-122.048;2022-12-19T04:07:28;22.50;46.20
49222;DHT22;35047;37.588;-122.048;2022-12-19T04:09:57;22.30;46.80
49222;DHT22;35047;37.588;-122.048;2022-12-19T04:12:33;22.30;47.00
49222;DHT22;35047;37.588;-122.048;2022-12-19T04:15:03;22.40;47.00
49222;DHT22;35047;37.588;-122.048;2022-12-19T04:17:54;22.30;47.00
49222;DHT22;35047;37.588;-122.048;2022-12-19T04:20:25;22.40;47.50
49222;DHT22;35047;37.588;-122.048;2022-12-19T04:25:45;21.70;46.90
49222;DHT22;35047;37.588;-122.048;2022-12-19T04:28:59;22.10;47.00
49222;DHT22;35047;37.588;-122.048;2022-12-19T04:31:06;22.20;46.90
49222;DHT22;35047;37.588;-122.048;2022-12-19T04:33:34;22.30;46.70
49222;DHT22;35047;37.588;-122.048;2022-12-19T04:36:00;22.30;46.50
49222;DHT22;35047;37.588;-122.048;2022-12-19T04:38:27;22.30;46.40
49222;DHT22;35047;37.588;-122.048;2022-12-19T04:40:54;22.30;46.10
49222;DHT22;35047;37.588;-122.048;2022-12-19T04:43:21;21.90;46.20
49222;DHT22;35047;37.588;-122.048;2022-12-19T04:45:48;21.20;47.50
49222;DHT22;35047;37.588;-122.048;2022-12-19T04:48:14;20.80;48.40
49222;DHT22;35047;37.588;-122.048;2022-12-19T04:50:42;20.70;48.90
49222;DHT22;35047;37.588;-122.048;2022-12-19T04:53:09;21.20;48.20
49222;DHT22;35047;37.588;-122.048;2022-12-19T04:55:37;21.20;47.70
49222;DHT22;35047;37.588;-122.048;2022-12-19T04:58:05;20.60;48.10
49222;DHT22;35047;37.588;-122.048;2022-12-19T05:00:33;20.30;49.50
49222;DHT22;35047;37.588;-122.048;2022-12-19T05:02:59;20.70;49.30
49222;DHT22;35047;37.588;-122.048;2022-12-19T05:05:27;20.90;48.50
49222;DHT22;35047;37.588;-122.048;2022-12-19T05:07:54;21.10;48.10
49222;DHT22;35047;37.588;-122.048;2022-12-19T05:10:21;21.20;47.80
49222;DHT22;35047;37.588;-122.048;2022-12-19T05:12:47;21.30;47.40
49222;DHT22;35047;37.588;-122.048;2022-12-19T05:15:15;21.50;47.20
49222;DHT22;35047;37.588;-122.048;2022-12-19T05:17:42;21.60;47.00
49222;DHT22;35047;37.588;-122.048;2022-12-19T05:20:10;21.70;46.80
49222;DHT22;35047;37.588;-122.048;2022-12-19T05:22:36;21.70;46.60
49222;DHT22;35047;37.588;-122.048;2022-12-19T05:25:04;21.50;46.80
49222;DHT22;35047;37.588;-122.048;2022-12-19T05:27:31;21.20;47.40
49222;DHT22;35047;37.588;-122.048;2022-12-19T05:29:57;21.20;47.40
49222;DHT22;35047;37.588;-122.048;2022-12-19T05:32:29;21.20;47.10
49222;DHT22;35047;37.588;-122.048;2022-12-19T05:34:57;21.10;47.20
49222;DHT22;35047;37.588;-122.048;2022-12-19T05:37:23;21.30;47.00
49222;DHT22;35047;37.588;-122.048;2022-12-19T05:39:50;21.30;47.00
49222;DHT22;35047;37.588;-122.048;2022-12-19T05:42:18;21.30;47.00
49222;DHT22;35047;37.588;-122.048;2022-12-19T05:44:46;21.40;46.80
49222;DHT22;35047;37.588;-122.048;2022-12-19T05:47:13;21.30;46.60
49222;DHT22;35047;37.588;-122.048;2022-12-19T05:49:39;21.40;46.50
49222;DHT22;35047;37.588;-122.048;2022-12-19T05:52:07;21.40;46.40
49222;DHT22;35047;37.588;-122.048;2022-12-19T05:54:34;21.40;46.30
49222;DHT22;35047;37.588;-122.048;2022-12-19T05:57:00;21.40;46.20
49222;DHT22;35047;37.588;-122.048;2022-12-19T05:59:27;21.40;46.20
49222;DHT22;35047;37.588;-122.048;2022-12-19T06:01:54;21.30;46.10
49222;DHT22;35047;37.588;-122.048;2022-12-19T06:04:21;21.30;46.10
49222;DHT22;35047;37.588;-122.048;2022-12-19T06:06:48;21.30;46.10
49222;DHT22;35047;37.588;-122.048;2022-12-19T06:09:14;21.20;46.10
49222;DHT22;35047;37.588;-122.048;2022-12-19T06:11:42;21.20;46.10
49222;DHT22;35047;37.588;-122.048;2022-12-19T06:14:09;21.20;46.10
49222;DHT22;35047;37.588;-122.048;2022-12-19T06:16:35;21.20;46.10
49222;DHT22;35047;37.588;-122.048;2022-12-19T06:19:03;21.20;46.10
49222;DHT22;35047;37.588;-122.048;2022-12-19T06:21:32;21.10;46.00
49222;DHT22;35047;37.588;-122.048;2022-12-19T06:23:59;21.10;46.00
49222;DHT22;35047;37.588;-122.048;2022-12-19T06:26:25;21.10;45.90
49222;DHT22;35047;37.588;-122.048;2022-12-19T06:28:54;21.10;46.00
49222;DHT22;35047;37.588;-122.048;2022-12-19T06:31:22;21.00;46.00
49222;DHT22;35047;37.588;-122.048;2022-12-19T06:33:50;20.90;46.40
49222;DHT22;35047;37.588;-122.048;2022-12-19T06:36:23;20.90;46.30
49222;DHT22;35047;37.588;-122.048;2022-12-19T06:38:51;20.90;46.10
49222;DHT22;35047;37.588;-122.048;2022-12-19T06:41:18;20.90;46.40
49222;DHT22;35047;37.588;-122.048;2022-12-19T06:44:06;20.60;46.70
49222;DHT22;35047;37.588;-122.048;2022-12-19T06:46:33;20.50;46.80
49222;DHT22;35047;37.588;-122.048;2022-12-19T06:49:00;20.40;47.10
49222;DHT22;35047;37.588;-122.048;2022-12-19T06:51:28;20.30;47.50
49222;DHT22;35047;37.588;-122.048;2022-12-19T06:53:55;20.40;47.50
49222;DHT22;35047;37.588;-122.048;2022-12-19T06:56:22;20.40;47.10
49222;DHT22;35047;37.588;-122.048;2022-12-19T06:58:49;20.20;47.10
49222;DHT22;35047;37.588;-122.048;2022-12-19T07:01:18;20.40;46.90
49222;DHT22;35047;37.588;-122.048;2022-12-19T07:03:46;20.20;47.10
49222;DHT22;35047;37.588;-122.048;2022-12-19T07:06:14;20.10;47.60
49222;DHT22;35047;37.588;-122.048;2022-12-19T07:08:40;20.20;47.30
49222;DHT22;35047;37.588;-122.048;2022-12-19T07:11:08;20.30;47.40
49222;DHT22;35047;37.588;-122.048;2022-12-19T07:13:34;20.30;47.50
49222;DHT22;35047;37.588;-122.048;2022-12-19T07:16:02;20.40;47.40
49222;DHT22;35047;37.588;-122.048;2022-12-19T07:18:32;20.30;47.00
49222;DHT22;35047;37.588;-122.048;2022-12-19T07:21:01;20.40;46.90
49222;DHT22;35047;37.588;-122.048;2022-12-19T07:23:29;20.40;46.80
49222;DHT22;35047;37.588;-122.048;2022-12-19T07:25:56;20.30;47.10
49222;DHT22;35047;37.588;-122.048;2022-12-19T07:28:23;20.10;46.90
49222;DHT22;35047;37.588;-122.048;2022-12-19T07:30:51;20.10;47.30
49222;DHT22;35047;37.588;-122.048;2022-12-19T07:33:18;20.20;47.00
49222;DHT22;35047;37.588;-122.048;2022-12-19T07:35:45;20.30;46.80
49222;DHT22;35047;37.588;-122.048;2022-12-19T07:38:12;20.30;46.80
49222;DHT22;35047;37.588;-122.048;2022-12-19T07:40:38;20.30;46.80
49222;DHT22;35047;37.588;-122.048;2022-12-19T07:43:06;20.30;46.70
49222;DHT22;35047;37.588;-122.048;2022-12-19T07:45:36;20.30;46.50
49222;DHT22;35047;37.588;-122.048;2022-12-19T07:48:03;20.30;46.40
49222;DHT22;35047;37.588;-122.048;2022-12-19T07:50:31;20.20;46.30
49222;DHT22;35047;37.588;-122.048;2022-12-19T07:52:58;20.20;46.30
49222;DHT22;35047;37.588;-122.048;2022-12-19T07:55:26;20.20;46.30
49222;DHT22;35047;37.588;-122.048;2022-12-19T07:57:53;20.20;46.50
49222;DHT22;35047;37.588;-122.048;2022-12-19T08:00:21;20.20;46.40
49222;DHT22;35047;37.588;-122.048;2022-12-19T08:02:49;20.10;46.50
49222;DHT22;35047;37.588;-122.048;2022-12-19T08:05:15;20.10;46.40
49222;DHT22;35047;37.588;-122.048;2022-12-19T08:07:43;19.70;46.40
49222;DHT22;35047;37.588;-122.048;2022-12-19T08:10:10;19.80;46.90
49222;DHT22;35047;37.588;-122.048;2022-12-19T08:12:39;19.90;46.80
49222;DHT22;35047;37.588;-122.048;2022-12-19T08:15:07;19.90;46.60
49222;DHT22;35047;37.588;-122.048;2022-12-19T08:17:34;19.90;46.60
49222;DHT22;35047;37.588;-122.048;2022-12-19T08:20:01;19.90;46.60
49222;DHT22;35047;37.588;-122.048;2022-12-19T08:22:29;19.90;46.50
49222;DHT22;35047;37.588;-122.048;2022-12-19T08:24:56;19.80;46.70
49222;DHT22;35047;37.588;-122.048;2022-12-19T08:27:23;19.50;47.50
49222;DHT22;35047;37.588;-122.048;2022-12-19T08:29:50;19.10;47.60
49222;DHT22;35047;37.588;-122.048;2022-12-19T08:32:17;19.40;47.50
49222;DHT22;35047;37.588;-122.048;2022-12-19T08:34:44;19.30;47.70
49222;DHT22;35047;37.588;-122.048;2022-12-19T08:37:11;19.10;47.90
49222;DHT22;35047;37.588;-122.048;2022-12-19T08:39:37;19.20;48.10
49222;DHT22;35047;37.588;-122.048;2022-12-19T08:42:04;19.40;47.70
49222;DHT22;35047;37.588;-122.048;2022-12-19T08:44:30;19.50;47.40
49222;DHT22;35047;37.588;-122.048;2022-12-19T08:46:58;19.50;47.20
49222;DHT22;35047;37.588;-122.048;2022-12-19T08:49:25;19.50;47.00
49222;DHT22;35047;37.588;-122.048;2022-12-19T08:51:52;19.50;46.80
49222;DHT22;35047;37.588;-122.048;2022-12-19T08:54:20;19.20;47.20
49222;DHT22;35047;37.588;-122.048;2022-12-19T08:56:46;19.40;47.20
49222;DHT22;35047;37.588;-122.048;2022-12-19T08:59:17;19.40;47.30
49222;DHT22;35047;37.588;-122.048;2022-12-19T09:01:44;19.30;47.90
49222;DHT22;35047;37.588;-122.048;2022-12-19T09:04:11;19.40;47.10
49222;DHT22;35047;37.588;-122.048;2022-12-19T09:06:38;19.50;47.00
49222;DHT22;35047;37.588;-122.048;2022-12-19T09:09:05;19.20;46.80
49222;DHT22;35047;37.588;-122.048;2022-12-19T09:11:32;19.10;47.30
49222;DHT22;35047;37.588;-122.048;2022-12-19T09:13:59;19.30;47.20
49222;DHT22;35047;37.588;-122.048;2022-12-19T09:16:27;18.80;47.20
49222;DHT22;35047;37.588;-122.048;2022-12-19T09:18:55;18.90;47.40
49222;DHT22;35047;37.588;-122.048;2022-12-19T09:21:24;19.20;47.20
49222;DHT22;35047;37.588;-122.048;2022-12-19T09:23:55;19.20;47.00
49222;DHT22;35047;37.588;-122.048;2022-12-19T09:26:24;19.30;47.00
49222;DHT22;35047;37.588;-122.048;2022-12-19T09:28:51;19.30;46.90
49222;DHT22;35047;37.588;-122.048;2022-12-19T09:31:22;18.80;47.10
49222;DHT22;35047;37.588;-122.048;2022-12-19T09:33:49;19.00;47.20
49222;DHT22;35047;37.588;-122.048;2022-12-19T09:36:19;19.10;47.40
49222;DHT22;35047;37.588;-122.048;2022-12-19T09:38:48;19.10;47.20
49222;DHT22;35047;37.588;-122.048;2022-12-19T09:46:22;19.10;47.10
49222;DHT22;35047;37.588;-122.048;2022-12-19T09:48:53;19.20;47.20
49222;DHT22;35047;37.588;-122.048;2022-12-19T09:54:41;18.80;47.00
49222;DHT22;35047;37.588;-122.048;2022-12-19T09:57:22;19.00;47.30
49222;DHT22;35047;37.588;-122.048;2022-12-19T09:59:56;19.10;47.10
49222;DHT22;35047;37.588;-122.048;2022-12-19T10:02:44;19.10;47.00
49222;DHT22;35047;37.588;-122.048;2022-12-19T10:08:38;18.80;47.20
49222;DHT22;35047;37.588;-122.048;2022-12-19T10:14:14;19.10;47.10
49222;DHT22;35047;37.588;-122.048;2022-12-19T10:16:52;19.10;47.00
49222;DHT22;35047;37.588;-122.048;2022-12-19T10:25:06;19.00;46.80
49222;DHT22;35047;37.588;-122.048;2022-12-19T10:30:39;18.90;46.70
49222;DHT22;35047;37.588;-122.048;2022-12-19T10:33:27;19.00;46.70
49222;DHT22;35047;37.588;-122.048;2022-12-19T10:35:58;19.10;46.80
49222;DHT22;35047;37.588;-122.048;2022-12-19T10:38:39;19.00;46.90
49222;DHT22;35047;37.588;-122.048;2022-12-19T10:46:46;18.90;46.90
49222;DHT22;35047;37.588;-122.048;2022-12-19T10:49:16;18.90;46.80
49222;DHT22;35047;37.588;-122.048;2022-12-19T10:52:06;18.90;46.80
49222;DHT22;35047;37.588;-122.048;2022-12-19T10:57:27;18.90;46.90
49222;DHT22;35047;37.588;-122.048;2022-12-19T11:00:01;18.80;47.10
49222;DHT22;35047;37.588;-122.048;2022-12-19T11:02:39;18.80;47.10
49222;DHT22;35047;37.588;-122.048;2022-12-19T11:05:28;18.80;47.00
49222;DHT22;35047;37.588;-122.048;2022-12-19T11:10:48;18.70;47.10
49222;DHT22;35047;37.588;-122.048;2022-12-19T11:13:37;18.40;47.20
49222;DHT22;35047;37.588;-122.048;2022-12-19T11:16:06;18.50;47.20
49222;DHT22;35047;37.588;-122.048;2022-12-19T11:23:54;18.50;47.20
49222;DHT22;35047;37.588;-122.048;2022-12-19T11:26:42;18.40;47.20
49222;DHT22;35047;37.588;-122.048;2022-12-19T11:29:35;18.40;47.20
49222;DHT22;35047;37.588;-122.048;2022-12-19T11:32:03;18.40;47.20
49222;DHT22;35047;37.588;-122.048;2022-12-19T11:34:32;18.40;47.30
49222;DHT22;35047;37.588;-122.048;2022-12-19T11:37:15;18.50;47.30
49222;DHT22;35047;37.588;-122.048;2022-12-19T11:48:52;18.60;46.90
49222;DHT22;35047;37.588;-122.048;2022-12-19T11:56:38;18.60;46.90
49222;DHT22;35047;37.588;-122.048;2022-12-19T11:59:26;18.60;46.90
49222;DHT22;35047;37.588;-122.048;2022-12-19T12:06:54;18.40;47.50
49222;DHT22;35047;37.588;-122.048;2022-12-19T12:09:34;18.50;47.40
49222;DHT22;35047;37.588;-122.048;2022-12-19T12:12:24;18.50;47.30
49222;DHT22;35047;37.588;-122.048;2022-12-19T12:17:59;18.40;47.50
49222;DHT22;35047;37.588;-122.048;2022-12-19T12:20:53;18.40;47.50
49222;DHT22;35047;37.588;-122.048;2022-12-19T12:24:14;18.40;47.50
49222;DHT22;35047;37.588;-122.048;2022-12-19T12:26:28;18.40;47.30
49222;DHT22;35047;37.588;-122.048;2022-12-19T12:29:35;18.40;47.30
49222;DHT22;35047;37.588;-122.048;2022-12-19T12:43:35;18.10;47.30
49222;DHT22;35047;37.588;-122.048;2022-12-19T12:46:13;18.30;47.30
49222;DHT22;35047;37.588;-122.048;2022-12-19T12:49:03;18.30;47.20
49222;DHT22;35047;37.588;-122.048;2022-12-19T12:51:32;18.30;47.10
49222;DHT22;35047;37.588;-122.048;2022-12-19T12:54:08;18.30;47.00
49222;DHT22;35047;37.588;-122.048;2022-12-19T12:56:38;18.30;46.90
49222;DHT22;35047;37.588;-122.048;2022-12-19T12:59:26;18.40;47.00
49222;DHT22;35047;37.588;-122.048;2022-12-19T13:02:27;18.30;46.90
49222;DHT22;35047;37.588;-122.048;2022-12-19T13:04:59;18.30;47.00
49222;DHT22;35047;37.588;-122.048;2022-12-19T13:07:33;18.20;47.40
49222;DHT22;35047;37.588;-122.048;2022-12-19T13:10:15;18.20;47.30
49222;DHT22;35047;37.588;-122.048;2022-12-19T13:12:57;18.20;47.20
49222;DHT22;35047;37.588;-122.048;2022-12-19T13:30:30;18.20;47.30
49222;DHT22;35047;37.588;-122.048;2022-12-19T13:43:40;17.70;48.00
49222;DHT22;35047;37.588;-122.048;2022-12-19T13:51:46;18.00;47.50
49222;DHT22;35047;37.588;-122.048;2022-12-19T13:54:25;18.00;47.80
49222;DHT22;35047;37.588;-122.048;2022-12-19T13:56:54;17.90;47.70
49222;DHT22;35047;37.588;-122.048;2022-12-19T13:59:21;18.00;48.00
49222;DHT22;35047;37.588;-122.048;2022-12-19T14:01:51;18.00;47.90
49222;DHT22;35047;37.588;-122.048;2022-12-19T14:04:30;17.90;47.60
49222;DHT22;35047;37.588;-122.048;2022-12-19T14:07:36;17.60;48.30
49222;DHT22;35047;37.588;-122.048;2022-12-19T14:10:28;17.80;48.00
49222;DHT22;35047;37.588;-122.048;2022-12-19T14:12:54;17.90;47.90
49222;DHT22;35047;37.588;-122.048;2022-12-19T14:15:44;18.00;48.00
49222;DHT22;35047;37.588;-122.048;2022-12-19T14:18:23;18.10;47.80
49222;DHT22;35047;37.588;-122.048;2022-12-19T14:21:05;18.00;47.70
49222;DHT22;35047;37.588;-122.048;2022-12-19T14:23:33;18.00;47.90
49222;DHT22;35047;37.588;-122.048;2022-12-19T14:25:59;17.70;48.00
49222;DHT22;35047;37.588;-122.048;2022-12-19T14:29:00;17.10;48.70
49222;DHT22;35047;37.588;-122.048;2022-12-19T14:31:28;16.80;49.80
49222;DHT22;35047;37.588;-122.048;2022-12-19T14:33:58;17.40;49.20
49222;DHT22;35047;37.588;-122.048;2022-12-19T14:36:30;17.70;48.70
49222;DHT22;35047;37.588;-122.048;2022-12-19T14:38:58;17.90;48.50
49222;DHT22;35047;37.588;-122.048;2022-12-19T14:44:17;18.10;48.30
49222;DHT22;35047;37.588;-122.048;2022-12-19T14:47:03;18.20;48.10
49222;DHT22;35047;37.588;-122.048;2022-12-19T14:49:32;18.20;48.00
49222;DHT22;35047;37.588;-122.048;2022-12-19T14:52:04;18.20;47.90
49222;DHT22;35047;37.588;-122.048;2022-12-19T14:54:30;18.20;47.90
49222;DHT22;35047;37.588;-122.048;2022-12-19T14:57:02;18.30;47.90
49222;DHT22;35047;37.588;-122.048;2022-12-19T14:59:35;18.30;47.90
49222;DHT22;35047;37.588;-122.048;2022-12-19T15:02:22;18.40;47.90
49222;DHT22;35047;37.588;-122.048;2022-12-19T15:05:02;18.40;47.80
49222;DHT22;35047;37.588;-122.048;2022-12-19T15:07:32;18.20;47.80
49222;DHT22;35047;37.588;-122.048;2022-12-19T15:10:02;18.20;48.00
49222;DHT22;35047;37.588;-122.048;2022-12-19T15:15:41;18.30;48.00
49222;DHT22;35047;37.588;-122.048;2022-12-19T15:18:25;18.40;48.20
49222;DHT22;35047;37.588;-122.048;2022-12-19T15:20:55;18.40;48.20
49222;DHT22;35047;37.588;-122.048;2022-12-19T15:23:22;18.50;48.10
49222;DHT22;35047;37.588;-122.048;2022-12-19T15:25:52;18.50;48.20
49222;DHT22;35047;37.588;-122.048;2022-12-19T15:28:21;18.60;48.10
49222;DHT22;35047;37.588;-122.048;2022-12-19T15:30:56;18.60;48.00
49222;DHT22;35047;37.588;-122.048;2022-12-19T15:33:24;18.70;48.00
49222;DHT22;35047;37.588;-122.048;2022-12-19T15:35:52;18.60;47.80
49222;DHT22;35047;37.588;-122.048;2022-12-19T15:38:19;18.70;47.90
49222;DHT22;35047;37.588;-122.048;2022-12-19T15:40:46;18.70;48.00
49222;DHT22;35047;37.588;-122.048;2022-12-19T15:43:21;18.70;48.00
49222;DHT22;35047;37.588;-122.048;2022-12-19T15:45:53;18.70;47.90
49222;DHT22;35047;37.588;-122.048;2022-12-19T15:48:23;18.80;47.90
49222;DHT22;35047;37.588;-122.048;2022-12-19T15:50:50;18.80;47.80
49222;DHT22;35047;37.588;-122.048;2022-12-19T15:53:27;18.80;48.20
49222;DHT22;35047;37.588;-122.048;2022-12-19T15:55:55;18.80;48.20
49222;DHT22;35047;37.588;-122.048;2022-12-19T15:58:25;18.90;48.10
49222;DHT22;35047;37.588;-122.048;2022-12-19T16:00:56;18.90;48.00
49222;DHT22;35047;37.588;-122.048;2022-12-19T16:03:23;19.00;48.10
49222;DHT22;35047;37.588;-122.048;2022-12-19T16:05:51;19.00;48.10
49222;DHT22;35047;37.588;-122.048;2022-12-19T16:08:21;19.00;48.80
49222;DHT22;35047;37.588;-122.048;2022-12-19T16:10:53;19.10;48.20
49222;DHT22;35047;37.588;-122.048;2022-12-19T16:13:26;19.10;48.20
49222;DHT22;35047;37.588;-122.048;2022-12-19T16:15:55;19.10;48.80
49222;DHT22;35047;37.588;-122.048;2022-12-19T16:18:22;18.50;48.70
49222;DHT22;35047;37.588;-122.048;2022-12-19T16:20:49;18.30;49.70
49222;DHT22;35047;37.588;-122.048;2022-12-19T16:23:16;18.40;49.40
49222;DHT22;35047;37.588;-122.048;2022-12-19T16:25:50;18.30;49.90
49222;DHT22;35047;37.588;-122.048;2022-12-19T16:28:31;18.30;50.00
49222;DHT22;35047;37.588;-122.048;2022-12-19T16:31:13;18.40;50.30
49222;DHT22;35047;37.588;-122.048;2022-12-19T16:33:40;18.60;50.10
49222;DHT22;35047;37.588;-122.048;2022-12-19T16:36:08;18.90;49.70
49222;DHT22;35047;37.588;-122.048;2022-12-19T16:38:36;18.20;50.60
49222;DHT22;35047;37.588;-122.048;2022-12-19T16:41:02;17.90;51.80
49222;DHT22;35047;37.588;-122.048;2022-12-19T16:43:30;18.40;51.10
49222;DHT22;35047;37.588;-122.048;2022-12-19T16:45:59;18.40;51.20
49222;DHT22;35047;37.588;-122.048;2022-12-19T16:48:27;18.50;51.30
49222;DHT22;35047;37.588;-122.048;2022-12-19T16:50:57;18.90;51.10
49222;DHT22;35047;37.588;-122.048;2022-12-19T16:53:24;19.20;50.80
49222;DHT22;35047;37.588;-122.048;2022-12-19T16:55:53;19.60;50.90
49222;DHT22;35047;37.588;-122.048;2022-12-19T16:58:25;19.20;51.00
49222;DHT22;35047;37.588;-122.048;2022-12-19T17:00:53;18.90;51.50
49222;DHT22;35047;37.588;-122.048;2022-12-19T17:03:27;19.20;51.40
49222;DHT22;35047;37.588;-122.048;2022-12-19T17:05:56;19.70;50.70
49222;DHT22;35047;37.588;-122.048;2022-12-19T17:08:23;19.80;50.20
49222;DHT22;35047;37.588;-122.048;2022-12-19T17:10:52;19.70;50.50
49222;DHT22;35047;37.588;-122.048;2022-12-19T17:13:20;19.90;50.40
49222;DHT22;35047;37.588;-122.048;2022-12-19T17:15:47;20.30;50.00
49222;DHT22;35047;37.588;-122.048;2022-12-19T17:20:53;20.50;49.90
49222;DHT22;35047;37.588;-122.048;2022-12-19T17:23:22;20.80;49.50
49222;DHT22;35047;37.588;-122.048;2022-12-19T17:25:50;20.90;49.10
49222;DHT22;35047;37.588;-122.048;2022-12-19T17:28:18;21.10;49.00
49222;DHT22;35047;37.588;-122.048;2022-12-19T17:30:48;21.30;49.60
49222;DHT22;35047;37.588;-122.048;2022-12-19T17:33:18;21.30;49.80
49222;DHT22;35047;37.588;-122.048;2022-12-19T17:35:45;21.10;50.20
49222;DHT22;35047;37.588;-122.048;2022-12-19T17:38:15;21.30;50.10
49222;DHT22;35047;37.588;-122.048;2022-12-19T17:40:43;21.60;49.50
49222;DHT22;35047;37.588;-122.048;2022-12-19T17:43:12;21.40;48.40
49222;DHT22;35047;37.588;-122.048;2022-12-19T17:45:38;20.90;49.30
49222;DHT22;35047;37.588;-122.048;2022-12-19T17:48:24;20.60;49.90
49222;DHT22;35047;37.588;-122.048;2022-12-19T17:50:55;21.10;49.70